createdAt,value
2023-05-09T00:01:30.273Z,3.60
2023-05-09T00:03:59.283Z,3.80
2023-05-09T00:06:29.216Z,3.90
2023-05-09T00:08:57.398Z,3.83
2023-05-09T00:11:25.508Z,3.80
2023-05-09T00:13:53.760Z,3.30
2023-05-09T00:16:24.278Z,4.73
2023-05-09T00:18:52.950Z,3.30
2023-05-09T00:21:21.090Z,4.33
2023-05-09T00:23:50.615Z,4.20
2023-05-09T00:26:18.797Z,3.10
2023-05-09T00:28:47.985Z,3.70
2023-05-09T00:31:16.321Z,4.00
2023-05-09T00:33:44.541Z,3.90
2023-05-09T00:36:12.701Z,3.30
2023-05-09T00:38:40.837Z,3.17
2023-05-09T00:41:10.378Z,3.80
2023-05-09T00:43:38.438Z,3.30
2023-05-09T00:46:06.970Z,3.90
2023-05-09T00:48:35.374Z,3.17
2023-05-09T00:51:05.111Z,3.87
2023-05-09T00:53:33.537Z,3.77
2023-05-09T00:56:02.272Z,3.73
2023-05-09T00:58:31.943Z,3.43
2023-05-09T01:01:02.210Z,3.70
2023-05-09T01:03:31.188Z,3.47
2023-05-09T01:06:07.018Z,3.60
2023-05-09T01:08:46.252Z,4.00
2023-05-09T01:11:21.886Z,3.40
2023-05-09T01:14:04.518Z,3.97
2023-05-09T01:16:37.660Z,3.93
2023-05-09T01:19:21.525Z,4.17
2023-05-09T01:21:52.678Z,4.30
2023-05-09T01:24:44.730Z,3.93
2023-05-09T01:27:23.588Z,4.07
2023-05-09T01:29:58.666Z,4.33
2023-05-09T01:32:29.135Z,5.07
2023-05-09T01:35:00.334Z,5.00
2023-05-09T01:37:32.541Z,4.57
2023-05-09T01:40:06.082Z,4.70
2023-05-09T01:42:41.125Z,4.70
2023-05-09T01:45:13.979Z,4.63
2023-05-09T01:47:43.992Z,3.93
2023-05-09T01:50:13.828Z,5.00
2023-05-09T01:52:44.110Z,4.20
2023-05-09T01:55:13.703Z,4.57
2023-05-09T01:57:43.172Z,4.77
2023-05-09T02:00:14.903Z,4.83
2023-05-09T02:02:44.168Z,4.60
2023-05-09T02:05:13.482Z,4.83
2023-05-09T02:07:43.127Z,4.90
2023-05-09T02:10:13.364Z,4.50
2023-05-09T02:12:41.793Z,5.47
2023-05-09T02:15:12.633Z,4.80
2023-05-09T02:17:43.192Z,4.90
2023-05-09T02:20:12.184Z,4.87
2023-05-09T02:22:42.031Z,4.67
2023-05-09T02:25:15.206Z,5.23
2023-05-09T02:27:45.644Z,4.13
2023-05-09T02:30:20.623Z,4.40
2023-05-09T02:32:51.656Z,4.70
2023-05-09T02:35:21.652Z,4.37
2023-05-09T02:37:50.436Z,4.17
2023-05-09T02:40:20.501Z,4.17
2023-05-09T02:42:49.011Z,3.70
2023-05-09T02:45:18.717Z,4.07
2023-05-09T02:47:46.899Z,3.93
2023-05-09T02:50:15.272Z,4.17
2023-05-09T02:52:44.760Z,3.30
2023-05-09T02:55:13.133Z,4.50
2023-05-09T02:57:43.745Z,6.07
2023-05-09T03:00:13.236Z,6.37
2023-05-09T03:02:42.805Z,6.30
2023-05-09T03:05:17.729Z,4.77
2023-05-09T03:07:46.097Z,4.97
2023-05-09T03:10:14.647Z,4.70
2023-05-09T03:12:44.749Z,4.60
2023-05-09T03:15:13.954Z,4.23
2023-05-09T03:17:45.114Z,4.53
2023-05-09T03:20:13.333Z,4.20
2023-05-09T03:22:41.548Z,3.63
2023-05-09T03:25:12.042Z,4.80
2023-05-09T03:27:40.477Z,4.67
2023-05-09T03:30:13.880Z,4.70
2023-05-09T03:32:45.418Z,4.33
2023-05-09T03:35:13.785Z,4.10
2023-05-09T03:37:42.119Z,4.00
2023-05-09T03:40:11.650Z,3.77
2023-05-09T03:42:47.812Z,4.40
2023-05-09T03:45:16.135Z,4.87
2023-05-09T03:47:47.819Z,3.83
2023-05-09T03:50:17.006Z,3.87
2023-05-09T03:52:46.062Z,3.90
2023-05-09T03:55:16.995Z,4.17
2023-05-09T03:57:45.416Z,3.43
2023-05-09T04:00:14.366Z,4.00
2023-05-09T04:02:42.800Z,3.87
2023-05-09T04:05:21.637Z,3.77
2023-05-09T04:07:50.508Z,4.30
2023-05-09T04:10:19.879Z,4.10
2023-05-09T04:12:48.047Z,4.63
2023-05-09T04:15:18.620Z,5.20
2023-05-09T04:17:46.866Z,4.60
2023-05-09T04:20:15.214Z,4.17
2023-05-09T04:22:47.079Z,5.30
2023-05-09T04:25:17.478Z,4.70
2023-05-09T04:27:47.231Z,4.90
2023-05-09T04:30:17.113Z,4.93
2023-05-09T04:32:46.890Z,4.57
2023-05-09T04:35:17.460Z,4.90
2023-05-09T04:37:51.351Z,4.80
2023-05-09T04:40:19.823Z,5.60
2023-05-09T04:42:55.134Z,6.30
2023-05-09T04:45:27.059Z,6.07
2023-05-09T04:47:55.833Z,6.37
2023-05-09T04:50:24.715Z,6.07
2023-05-09T04:52:54.464Z,6.80
2023-05-09T04:55:22.769Z,6.13
2023-05-09T04:57:52.149Z,5.80
2023-05-09T05:00:21.410Z,6.10
2023-05-09T05:02:50.772Z,6.60
2023-05-09T05:05:24.348Z,5.53
2023-05-09T05:07:55.117Z,5.20
2023-05-09T05:10:27.621Z,5.30
2023-05-09T05:13:03.831Z,4.93
2023-05-09T05:15:32.066Z,4.37
2023-05-09T05:18:00.952Z,4.60
2023-05-09T05:20:34.686Z,4.80
2023-05-09T05:23:04.417Z,3.97
2023-05-09T05:25:32.576Z,4.07
2023-05-09T05:28:02.626Z,4.23
2023-05-09T05:30:33.509Z,4.20
2023-05-09T05:33:03.322Z,3.80
2023-05-09T05:35:32.328Z,4.10
2023-05-09T05:38:01.018Z,3.70
2023-05-09T05:40:31.159Z,3.90
2023-05-09T05:43:02.908Z,4.00
2023-05-09T05:45:32.778Z,4.60
2023-05-09T05:48:03.953Z,4.03
2023-05-09T05:50:33.384Z,4.17
2023-05-09T05:53:01.775Z,4.73
2023-05-09T05:55:31.831Z,3.63
2023-05-09T05:58:00.116Z,3.93
2023-05-09T06:00:28.552Z,4.13
2023-05-09T06:03:03.563Z,4.20
2023-05-09T06:05:45.212Z,4.70
2023-05-09T06:08:13.662Z,4.50
2023-05-09T06:10:43.261Z,4.40
2023-05-09T06:13:12.489Z,4.30
2023-05-09T06:15:45.087Z,4.50
2023-05-09T06:18:13.250Z,5.30
2023-05-09T06:20:41.380Z,5.00
2023-05-09T06:23:09.924Z,5.83
2023-05-09T06:25:38.024Z,4.97
2023-05-09T06:28:07.768Z,4.90
2023-05-09T06:30:36.210Z,5.33
2023-05-09T06:33:04.442Z,5.20
2023-05-09T06:35:32.846Z,5.90
2023-05-09T06:38:01.018Z,5.40
2023-05-09T06:40:29.103Z,6.23
2023-05-09T06:42:57.185Z,5.47
2023-05-09T06:45:27.282Z,5.77
2023-05-09T06:47:55.631Z,6.07
2023-05-09T06:50:23.830Z,6.77
2023-05-09T06:52:51.892Z,7.27
2023-05-09T06:55:20.160Z,6.40
2023-05-09T06:57:48.494Z,6.30
2023-05-09T07:00:17.606Z,6.70
2023-05-09T07:02:47.170Z,7.00
2023-05-09T07:05:16.424Z,6.23
2023-05-09T07:07:44.738Z,6.43
2023-05-09T07:10:13.371Z,6.60
2023-05-09T07:12:42.017Z,5.73
2023-05-09T07:15:11.551Z,6.10
2023-05-09T07:17:39.706Z,5.80
2023-05-09T07:20:10.322Z,5.23
2023-05-09T07:22:38.525Z,5.00
2023-05-09T07:25:08.915Z,6.10
2023-05-09T07:27:37.482Z,4.73
2023-05-09T07:30:06.468Z,5.20
2023-05-09T07:32:34.943Z,4.73
2023-05-09T07:35:03.334Z,5.10
2023-05-09T07:37:32.955Z,4.67
2023-05-09T07:40:01.720Z,4.90
2023-05-09T07:42:30.394Z,4.93
2023-05-09T07:44:59.255Z,5.23
2023-05-09T07:47:27.702Z,5.80
2023-05-09T07:49:56.010Z,5.10
2023-05-09T07:52:24.232Z,5.30
2023-05-09T07:54:54.797Z,5.60
2023-05-09T07:57:23.347Z,5.40
2023-05-09T07:59:51.456Z,5.70
2023-05-09T08:02:19.849Z,5.53
2023-05-09T08:04:48.825Z,5.13
2023-05-09T08:07:17.585Z,4.93
2023-05-09T08:09:45.703Z,4.90
2023-05-09T08:12:15.281Z,4.57
2023-05-09T08:14:43.411Z,5.00
2023-05-09T08:17:11.762Z,4.73
2023-05-09T08:19:39.918Z,4.63
2023-05-09T08:22:08.088Z,4.00
2023-05-09T08:24:36.226Z,4.40
2023-05-09T08:27:04.479Z,5.10
2023-05-09T08:29:34.029Z,4.07
2023-05-09T08:32:02.158Z,5.20
2023-05-09T08:34:31.390Z,4.20
2023-05-09T08:36:59.574Z,4.27
2023-05-09T08:39:27.724Z,4.30
2023-05-09T08:41:59.688Z,4.20
2023-05-09T08:44:29.841Z,3.70
2023-05-09T08:47:01.745Z,4.10
2023-05-09T08:49:30.356Z,4.20
2023-05-09T08:51:59.031Z,3.87
2023-05-09T08:54:27.253Z,3.47
2023-05-09T08:56:55.919Z,4.00
2023-05-09T08:59:24.332Z,3.60
2023-05-09T09:01:54.513Z,3.00
2023-05-09T09:04:24.274Z,4.37
2023-05-09T09:06:53.708Z,4.10
2023-05-09T09:09:22.297Z,4.03
2023-05-09T09:11:50.736Z,5.33
2023-05-09T09:14:25.681Z,4.13
2023-05-09T09:16:55.720Z,4.27
2023-05-09T09:19:31.018Z,4.60
2023-05-09T09:22:01.139Z,4.20
2023-05-09T09:24:30.866Z,4.83
2023-05-09T09:26:58.917Z,4.43
2023-05-09T09:29:28.774Z,5.03
2023-05-09T09:31:56.969Z,4.50
2023-05-09T09:34:26.839Z,4.57
2023-05-09T09:36:55.152Z,4.40
2023-05-09T09:39:23.382Z,4.57
2023-05-09T09:41:51.752Z,4.60
2023-05-09T09:44:21.545Z,4.63
2023-05-09T09:46:51.527Z,4.10
2023-05-09T09:49:20.962Z,3.90
2023-05-09T09:51:53.370Z,4.00
2023-05-09T09:54:21.978Z,4.10
2023-05-09T09:56:51.898Z,4.57
2023-05-09T09:59:21.625Z,3.70
2023-05-09T10:02:02.315Z,4.10
2023-05-09T10:04:34.588Z,3.90
2023-05-09T10:07:05.994Z,4.00
2023-05-09T10:09:35.436Z,4.27
2023-05-09T10:12:05.180Z,7.27
2023-05-09T10:14:35.746Z,5.47
2023-05-09T10:17:05.841Z,9.40
2023-05-09T10:19:34.364Z,6.97
2023-05-09T10:22:05.341Z,4.90
2023-05-09T10:24:40.430Z,4.90
2023-05-09T10:27:12.879Z,5.50
2023-05-09T10:29:46.384Z,5.13
2023-05-09T10:32:20.550Z,6.00
2023-05-09T10:34:51.738Z,5.10
2023-05-09T10:37:22.469Z,5.80
2023-05-09T10:39:53.526Z,4.30
2023-05-09T10:42:23.008Z,4.30
2023-05-09T10:44:51.191Z,4.10
2023-05-09T10:47:20.175Z,4.73
2023-05-09T10:49:49.894Z,4.17
2023-05-09T10:52:18.907Z,5.20
2023-05-09T10:55:00.795Z,4.10
2023-05-09T10:57:29.823Z,4.83
2023-05-09T10:59:58.642Z,4.97
2023-05-09T11:02:29.570Z,3.33
2023-05-09T11:05:18.337Z,4.30
2023-05-09T11:07:47.774Z,3.50
2023-05-09T11:10:18.942Z,3.93
2023-05-09T11:12:57.943Z,4.23
2023-05-09T11:15:27.560Z,4.03
2023-05-09T11:18:07.387Z,3.37
2023-05-09T11:20:36.581Z,3.80
2023-05-09T11:23:06.105Z,3.40
2023-05-09T11:25:36.167Z,3.20
2023-05-09T11:28:04.359Z,3.20
2023-05-09T11:30:41.725Z,3.40
2023-05-09T11:33:23.958Z,3.73
2023-05-09T11:36:20.027Z,3.30
2023-05-09T11:38:49.046Z,3.13
2023-05-09T11:41:18.577Z,3.10
2023-05-09T11:43:46.847Z,2.97
2023-05-09T11:46:15.072Z,2.63
2023-05-09T11:48:43.236Z,3.40
2023-05-09T11:51:19.025Z,2.77
2023-05-09T11:53:50.521Z,3.10
2023-05-09T11:56:20.064Z,3.10
2023-05-09T11:58:50.732Z,3.30
2023-05-09T12:01:19.659Z,3.33
2023-05-09T12:03:48.115Z,2.83
2023-05-09T12:06:18.262Z,3.00
2023-05-09T12:08:47.448Z,3.07
2023-05-09T12:11:16.215Z,3.07
2023-05-09T12:13:50.398Z,3.53
2023-05-09T12:16:20.292Z,3.23
2023-05-09T12:18:49.875Z,2.83
2023-05-09T12:21:18.269Z,3.37
2023-05-09T12:23:49.839Z,3.20
2023-05-09T12:26:19.336Z,2.93
2023-05-09T12:28:49.412Z,3.27
2023-05-09T12:31:18.580Z,3.70
2023-05-09T12:33:47.156Z,3.97
2023-05-09T12:36:16.133Z,3.20
2023-05-09T12:38:54.728Z,2.87
2023-05-09T12:41:37.095Z,2.70
2023-05-09T12:44:11.202Z,3.90
2023-05-09T12:46:39.399Z,4.20
2023-05-09T12:49:07.663Z,3.80
2023-05-09T12:51:35.793Z,2.90
2023-05-09T12:54:05.284Z,3.50
2023-05-09T12:56:36.302Z,3.73
2023-05-09T12:59:04.482Z,3.50
2023-05-09T13:01:36.832Z,3.00
2023-05-09T13:04:07.605Z,3.10
2023-05-09T13:06:36.386Z,2.97
2023-05-09T13:09:06.635Z,3.50
2023-05-09T13:11:35.384Z,3.70
2023-05-09T13:14:04.490Z,3.30
2023-05-09T13:16:34.141Z,3.20
2023-05-09T13:19:02.704Z,3.40
2023-05-09T13:21:31.008Z,3.37
2023-05-09T13:23:59.193Z,2.90
2023-05-09T13:26:27.719Z,2.90
2023-05-09T13:28:56.021Z,2.87
2023-05-09T13:31:24.269Z,2.63
2023-05-09T13:33:54.344Z,2.70
2023-05-09T13:36:22.675Z,3.00
2023-05-09T13:38:51.025Z,2.67
2023-05-09T13:41:22.493Z,3.83
2023-05-09T13:43:50.979Z,3.17
2023-05-09T13:46:19.085Z,2.90
2023-05-09T13:48:47.773Z,3.03
2023-05-09T13:51:17.608Z,3.37
2023-05-09T13:53:45.703Z,4.77
2023-05-09T13:56:14.084Z,3.27
2023-05-09T13:58:42.279Z,3.53
2023-05-09T14:01:10.521Z,3.33
2023-05-09T14:03:38.870Z,2.80
2023-05-09T14:06:09.225Z,3.13
2023-05-09T14:08:39.659Z,3.37
2023-05-09T14:11:08.961Z,3.03
2023-05-09T14:13:37.104Z,2.90
2023-05-09T14:16:06.275Z,3.00
2023-05-09T14:18:35.336Z,3.23
2023-05-09T14:21:03.448Z,3.67
2023-05-09T14:23:31.553Z,2.77
2023-05-09T14:26:01.161Z,2.10
2023-05-09T14:28:29.313Z,2.70
2023-05-09T14:30:57.990Z,2.43
2023-05-09T14:33:27.170Z,3.10
2023-05-09T14:35:55.243Z,3.20
2023-05-09T14:38:23.406Z,2.47
2023-05-09T14:40:51.788Z,2.70
2023-05-09T14:43:22.524Z,2.40
2023-05-09T14:45:50.601Z,2.80
2023-05-09T14:48:18.819Z,2.77
2023-05-09T14:50:46.940Z,3.13
2023-05-09T14:53:15.134Z,2.97
2023-05-09T14:55:43.464Z,2.47
2023-05-09T14:58:13.326Z,2.93
2023-05-09T15:00:43.105Z,2.50
2023-05-09T15:03:11.841Z,2.77
2023-05-09T15:05:40.522Z,3.10
2023-05-09T15:08:09.415Z,2.90
2023-05-09T15:10:37.679Z,2.80
2023-05-09T15:13:06.159Z,3.00
2023-05-09T15:15:34.361Z,2.50
2023-05-09T15:18:04.098Z,3.10
2023-05-09T15:20:32.185Z,3.00
2023-05-09T15:23:00.906Z,2.87
2023-05-09T15:25:29.331Z,2.83
2023-05-09T15:27:57.510Z,3.10
2023-05-09T15:30:25.766Z,3.60
2023-05-09T15:32:53.878Z,2.90
2023-05-09T15:35:23.392Z,2.13
2023-05-09T15:37:51.521Z,2.73
2023-05-09T15:40:19.579Z,2.80
2023-05-09T15:42:48.633Z,2.77
2023-05-09T15:45:16.808Z,2.83
2023-05-09T15:47:44.999Z,4.00
2023-05-09T15:50:13.484Z,4.60
2023-05-09T15:52:43.081Z,3.73
2023-05-09T15:55:13.018Z,2.77
2023-05-09T15:57:41.340Z,3.40
2023-05-09T16:00:10.482Z,2.60
2023-05-09T16:02:44.142Z,2.60
2023-05-09T16:05:13.047Z,2.50
2023-05-09T16:07:46.544Z,2.27
2023-05-09T16:10:15.136Z,1.80
2023-05-09T16:12:43.593Z,1.97
2023-05-09T16:15:12.660Z,2.17
2023-05-09T16:17:41.209Z,1.80
2023-05-09T16:20:13.573Z,1.93
2023-05-09T16:22:43.299Z,1.87
2023-05-09T16:25:12.273Z,1.57
2023-05-09T16:27:40.566Z,2.30
2023-05-09T16:30:10.085Z,1.90
2023-05-09T16:32:38.242Z,2.43
2023-05-09T16:35:07.645Z,1.97
2023-05-09T16:37:35.949Z,1.97
2023-05-09T16:40:06.370Z,2.27
2023-05-09T16:42:34.434Z,2.33
2023-05-09T16:45:02.556Z,2.03
2023-05-09T16:47:30.946Z,2.80
2023-05-09T16:49:59.173Z,2.17
2023-05-09T16:52:27.923Z,2.00
2023-05-09T16:54:56.027Z,2.37
2023-05-09T16:57:25.541Z,2.63
2023-05-09T16:59:54.414Z,2.20
2023-05-09T17:02:22.631Z,2.47
2023-05-09T17:04:50.831Z,3.13
2023-05-09T17:07:19.268Z,2.60
2023-05-09T17:09:48.294Z,2.63
2023-05-09T17:12:18.279Z,2.23
2023-05-09T17:14:48.432Z,3.00
2023-05-09T17:17:17.684Z,2.30
2023-05-09T17:19:46.348Z,2.60
2023-05-09T17:22:14.418Z,4.23
2023-05-09T17:24:42.539Z,3.10
2023-05-09T17:27:11.350Z,3.37
2023-05-09T17:29:39.478Z,3.20
2023-05-09T17:32:09.548Z,3.00
2023-05-09T17:34:37.909Z,3.17
2023-05-09T17:37:07.271Z,3.00
2023-05-09T17:39:35.983Z,2.90
2023-05-09T17:42:04.155Z,2.80
2023-05-09T17:44:32.808Z,3.27
2023-05-09T17:47:01.369Z,2.40
2023-05-09T17:49:30.857Z,2.50
2023-05-09T17:51:59.801Z,2.60
2023-05-09T17:54:28.000Z,2.00
2023-05-09T17:56:59.212Z,3.00
2023-05-09T17:59:27.769Z,2.37
2023-05-09T18:01:56.077Z,1.63
2023-05-09T18:04:24.267Z,2.27
2023-05-09T18:06:54.343Z,2.47
2023-05-09T18:09:22.781Z,2.00
2023-05-09T18:11:50.946Z,1.93
2023-05-09T18:14:19.101Z,3.40
2023-05-09T18:16:47.331Z,3.67
2023-05-09T18:19:15.497Z,2.77
2023-05-09T18:21:43.547Z,2.40
2023-05-09T18:24:14.346Z,2.00
2023-05-09T18:26:43.659Z,2.30
2023-05-09T18:29:12.170Z,1.70
2023-05-09T18:31:41.535Z,1.97
2023-05-09T18:34:10.384Z,2.00
2023-05-09T18:36:38.602Z,2.30
2023-05-09T18:39:06.736Z,2.20
2023-05-09T18:41:36.276Z,1.70
2023-05-09T18:44:04.575Z,1.67
2023-05-09T18:46:34.011Z,2.00
2023-05-09T18:49:03.407Z,2.37
2023-05-09T18:51:32.207Z,2.27
2023-05-09T18:54:00.341Z,2.30
2023-05-09T18:56:28.472Z,2.30
2023-05-09T18:58:57.888Z,2.63
2023-05-09T19:01:26.188Z,1.93
2023-05-09T19:03:55.099Z,2.13
2023-05-09T19:06:24.074Z,1.60
2023-05-09T19:08:53.845Z,1.90
2023-05-09T19:11:22.347Z,1.47
2023-05-09T19:13:50.860Z,1.80
2023-05-09T19:16:21.912Z,1.70
2023-05-09T19:18:50.070Z,1.90
2023-05-09T19:21:18.804Z,1.80
2023-05-09T19:23:47.837Z,2.13
2023-05-09T19:26:16.535Z,1.83
2023-05-09T19:28:45.917Z,2.03
2023-05-09T19:31:14.686Z,2.60
2023-05-09T19:33:46.372Z,1.67
2023-05-09T19:36:14.494Z,2.10
2023-05-09T19:38:42.641Z,2.17
2023-05-09T19:41:12.767Z,2.10
2023-05-09T19:43:41.050Z,1.73
2023-05-09T19:46:09.271Z,1.50
2023-05-09T19:48:37.443Z,2.20
2023-05-09T19:51:08.813Z,2.13
2023-05-09T19:53:37.059Z,1.57
2023-05-09T19:56:07.875Z,1.70
2023-05-09T19:58:36.448Z,1.80
2023-05-09T20:01:06.845Z,1.80
2023-05-09T20:03:35.202Z,1.97
2023-05-09T20:06:03.447Z,1.73
2023-05-09T20:08:32.925Z,1.60
2023-05-09T20:11:01.015Z,2.00
2023-05-09T20:13:29.098Z,1.47
2023-05-09T20:15:57.528Z,1.40
2023-05-09T20:18:25.700Z,1.67
2023-05-09T20:20:54.708Z,1.10
2023-05-09T20:23:22.795Z,1.30
2023-05-09T20:25:52.282Z,1.50
2023-05-09T20:28:22.369Z,1.40
2023-05-09T20:30:50.674Z,1.40
2023-05-09T20:33:18.945Z,1.70
2023-05-09T20:35:49.096Z,1.63
2023-05-09T20:38:17.267Z,1.30
2023-05-09T20:40:45.397Z,1.93
2023-05-09T20:43:15.016Z,1.67
2023-05-09T20:45:43.443Z,1.93
2023-05-09T20:48:12.336Z,1.63
2023-05-09T20:50:40.386Z,1.80
2023-05-09T20:53:08.478Z,2.00
2023-05-09T20:55:36.568Z,1.50
2023-05-09T20:58:04.653Z,1.40
2023-05-09T21:00:34.285Z,1.80
2023-05-09T21:03:02.519Z,2.07
2023-05-09T21:05:30.707Z,2.20
2023-05-09T21:07:58.813Z,2.37
2023-05-09T21:10:26.944Z,3.10
2023-05-09T21:12:55.093Z,2.13
2023-05-09T21:15:23.312Z,1.90
2023-05-09T21:17:53.017Z,1.90
2023-05-09T21:20:21.255Z,2.10
2023-05-09T21:22:49.710Z,1.97
2023-05-09T21:25:18.415Z,1.80
2023-05-09T21:27:46.777Z,1.90
2023-05-09T21:30:15.482Z,1.90
2023-05-09T21:32:43.838Z,2.37
2023-05-09T21:35:14.602Z,2.47
2023-05-09T21:37:42.692Z,2.40
2023-05-09T21:40:12.389Z,2.50
2023-05-09T21:42:41.206Z,2.20
2023-05-09T21:45:10.295Z,2.23
2023-05-09T21:47:39.624Z,2.47
2023-05-09T21:50:08.652Z,2.33
2023-05-09T21:52:38.233Z,2.30
2023-05-09T21:55:06.889Z,2.40
2023-05-09T21:57:34.997Z,2.40
2023-05-09T22:00:05.358Z,2.60
2023-05-09T22:02:42.934Z,2.57
2023-05-09T22:05:11.511Z,1.80
2023-05-09T22:07:41.478Z,2.07
2023-05-09T22:10:10.744Z,1.93
2023-05-09T22:12:38.890Z,1.40
2023-05-09T22:15:08.748Z,2.07
2023-05-09T22:17:37.132Z,1.73
2023-05-09T22:20:06.251Z,2.13
2023-05-09T22:22:34.459Z,1.83
2023-05-09T22:25:04.918Z,2.03
2023-05-09T22:27:33.096Z,1.67
2023-05-09T22:30:01.439Z,1.50
2023-05-09T22:32:29.843Z,1.23
2023-05-09T22:34:57.981Z,1.27
2023-05-09T22:37:26.232Z,1.50
2023-05-09T22:39:54.367Z,1.43
2023-05-09T22:42:23.775Z,1.80
2023-05-09T22:44:52.822Z,1.40
2023-05-09T22:47:20.971Z,1.60
2023-05-09T22:49:50.415Z,1.30
2023-05-09T22:52:18.622Z,0.83
2023-05-09T22:54:46.688Z,1.10
2023-05-09T22:57:17.708Z,1.60
2023-05-09T22:59:47.462Z,1.20
2023-05-09T23:02:15.618Z,1.10
2023-05-09T23:04:43.748Z,1.23
2023-05-09T23:07:12.083Z,1.33
2023-05-09T23:09:40.907Z,1.17
2023-05-09T23:12:10.780Z,1.10
2023-05-09T23:14:39.308Z,1.10
2023-05-09T23:17:08.876Z,1.13
2023-05-09T23:19:37.354Z,1.10
2023-05-09T23:22:05.428Z,0.90
2023-05-09T23:24:33.584Z,0.70
2023-05-09T23:27:02.502Z,0.90
2023-05-09T23:29:30.636Z,0.90
2023-05-09T23:31:58.939Z,0.90
2023-05-09T23:34:29.422Z,0.80
2023-05-09T23:36:57.506Z,0.80
2023-05-09T23:39:25.567Z,0.80
2023-05-09T23:41:53.774Z,0.93
2023-05-09T23:44:21.912Z,0.80
2023-05-09T23:46:50.027Z,0.90
2023-05-09T23:49:18.258Z,1.37
2023-05-09T23:51:47.901Z,1.10
2023-05-09T23:54:17.097Z,0.97
2023-05-09T23:56:45.200Z,0.93
2023-05-09T23:59:13.440Z,0.77
